<?xml version="1.0" encoding="UTF-8" standalone="no" ?>
<gpx xmlns="http://www.topografix.com/GPX/1/1" xmlns:xsi="http://www.w3.org/2001/XMLSchema-instance" xsi:schemaLocation="http://www.topografix.com/GPX/1/1 http://www.topografix.com/GPX/1/1/gpx.xsd" version="1.1" creator="VisuGPX - https://www.visugpx.com">
  <metadata>
    <name>Randonnée du 21/06/2020 à 09:25</name>
    <desc><![CDATA[Mazaugues Caramy Saint-Probace]]></desc>
  </metadata>
  <wpt lat="43.36884" lon="5.91566">
    <ele>390</ele>
    <name><![CDATA[1 continuer tout droit citerne à gauche 9h34]]></name>
  </wpt>
  <wpt lat="43.36973" lon="5.91599">
    <ele>390</ele>
    <name><![CDATA[1bis ne pas franchir la barrière longer le grillage à droite.]]></name>
  </wpt>
  <wpt lat="43.36948" lon="5.92115">
    <ele>328</ele>
    <name><![CDATA[2 RAS 9h45]]></name>
  </wpt>
  <wpt lat="43.37044" lon="5.91993">
    <ele>333</ele>
    <name><![CDATA[3 dans la seconde épingle continuer tout droit le petit chemin avec petit cairn 9h48]]></name>
  </wpt>
  <wpt lat="43.37656" lon="5.91409">
    <ele>318</ele>
    <name><![CDATA[3bis aller à droite vers source Figuières sinon gauche 10h16]]></name>
  </wpt>
  <wpt lat="43.37742" lon="5.91375">
    <ele>331</ele>
    <name><![CDATA[5bis 4 et 5 courcircuités par le haut, essayez le bas aussi...10h29 T au nivau du genou. Attention aux nombreuses branches basses et aux racines au sol.]]></name>
  </wpt>
  <wpt lat="43.37961" lon="5.91152">
    <ele>402</ele>
    <name><![CDATA[5ter au cairn continuez a gauche]]></name>
  </wpt>
  <wpt lat="43.37919" lon="5.90944">
    <ele>413</ele>
    <name><![CDATA[8 depuis le 6 du jour balisage jaune à suivtre]]></name>
  </wpt>
  <wpt lat="43.38095" lon="5.9103">
    <ele>432</ele>
    <name><![CDATA[7bis prendre à gauche quitter balisage jaune ]]></name>
  </wpt>
  <wpt lat="43.38274" lon="5.91105">
    <ele>441</ele>
    <name><![CDATA[8Ref continuer à droite 11h00]]></name>
  </wpt>
  <wpt lat="43.39266" lon="5.92515">
    <ele>497</ele>
    <name><![CDATA[11R Table d'orientation Saint Probace Vue sur Tourves Sainte-Victoire Mont Aurélien 11h40-45]]></name>
  </wpt>
  <wpt lat="43.39721" lon="5.92351">
    <ele>346</ele>
    <name><![CDATA[12R prendre à droite suivre balisage jaune 12h05]]></name>
  </wpt>
  <wpt lat="43.39731" lon="5.92798">
    <ele>320</ele>
    <name><![CDATA[13R prendre à droite Quitter le balisage jaune 12h13]]></name>
  </wpt>
  <wpt lat="43.39495" lon="5.93422">
    <ele>275</ele>
    <name><![CDATA[14R suivre la route à droite 12h26]]></name>
  </wpt>
  <wpt lat="43.39379" lon="5.93488">
    <ele>276</ele>
    <name><![CDATA[Parking associatif]]></name>
  </wpt>
  <wpt lat="43.39046" lon="5.93209">
    <ele>277</ele>
    <name><![CDATA[parking initial fermé du 12 juin 2020 au 13 septembre 2020]]></name>
  </wpt>
  <wpt lat="43.38888" lon="5.93134">
    <ele>278</ele>
    <name><![CDATA[prendre chemin à gauche dans les bois 12h46]]></name>
  </wpt>
  <wpt lat="43.37755" lon="5.92281">
    <ele>418</ele>
    <name><![CDATA[13h37 Pause déjeuner ]]></name>
  </wpt>
  <wpt lat="43.36906" lon="5.92477">
    <ele>377</ele>
    <name><![CDATA[prendre Mazaugues Caire Sarrasin Ouest quittre le GR 14h34]]></name>
  </wpt>
  <trk>
    <name><![CDATA[Randonnée du 21/06/2020 à 09:25]]></name>
    <trkseg>
      <trkpt lat="43.36482" lon="5.91347">
        <ele>365</ele>
        <time>2000-11-05T08:25:10+01:00</time>
      </trkpt>
      <trkpt lat="43.36503" lon="5.91337">
        <ele>366</ele>
        <time>2000-11-05T08:25:53+01:00</time>
      </trkpt>
      <trkpt lat="43.36514" lon="5.91366">
        <ele>366</ele>
        <time>2000-11-05T08:26:19+01:00</time>
      </trkpt>
      <trkpt lat="43.36525" lon="5.91394">
        <ele>367</ele>
        <time>2000-11-05T08:26:39+01:00</time>
      </trkpt>
      <trkpt lat="43.36528" lon="5.91425">
        <ele>366</ele>
        <time>2000-11-05T08:26:56+01:00</time>
      </trkpt>
      <trkpt lat="43.36524" lon="5.91456">
        <ele>366</ele>
        <time>2000-11-05T08:27:18+01:00</time>
      </trkpt>
      <trkpt lat="43.36518" lon="5.91487">
        <ele>365</ele>
        <time>2000-11-05T08:27:39+01:00</time>
      </trkpt>
      <trkpt lat="43.36518" lon="5.91519">
        <ele>365</ele>
        <time>2000-11-05T08:28:02+01:00</time>
      </trkpt>
      <trkpt lat="43.36535" lon="5.9154">
        <ele>365</ele>
        <time>2000-11-05T08:28:21+01:00</time>
      </trkpt>
      <trkpt lat="43.36556" lon="5.91551">
        <ele>367</ele>
        <time>2000-11-05T08:28:44+01:00</time>
      </trkpt>
      <trkpt lat="43.36578" lon="5.91559">
        <ele>369</ele>
        <time>2000-11-05T08:29:05+01:00</time>
      </trkpt>
      <trkpt lat="43.366" lon="5.91547">
        <ele>370</ele>
        <time>2000-11-05T08:29:23+01:00</time>
      </trkpt>
      <trkpt lat="43.36622" lon="5.91534">
        <ele>371</ele>
        <time>2000-11-05T08:29:42+01:00</time>
      </trkpt>
      <trkpt lat="43.36636" lon="5.9151">
        <ele>372</ele>
        <time>2000-11-05T08:30:05+01:00</time>
      </trkpt>
      <trkpt lat="43.3666" lon="5.9151">
        <ele>373</ele>
        <time>2000-11-05T08:30:21+01:00</time>
      </trkpt>
      <trkpt lat="43.36682" lon="5.91512">
        <ele>376</ele>
        <time>2000-11-05T08:30:42+01:00</time>
      </trkpt>
      <trkpt lat="43.36705" lon="5.91503">
        <ele>377</ele>
        <time>2000-11-05T08:31:03+01:00</time>
      </trkpt>
      <trkpt lat="43.36726" lon="5.91489">
        <ele>378</ele>
        <time>2000-11-05T08:31:33+01:00</time>
      </trkpt>
      <trkpt lat="43.36749" lon="5.91482">
        <ele>380</ele>
        <time>2000-11-05T08:31:48+01:00</time>
      </trkpt>
      <trkpt lat="43.36771" lon="5.91491">
        <ele>382</ele>
        <time>2000-11-05T08:32:04+01:00</time>
      </trkpt>
      <trkpt lat="43.36779" lon="5.9152">
        <ele>383</ele>
        <time>2000-11-05T08:32:21+01:00</time>
      </trkpt>
      <trkpt lat="43.36797" lon="5.91541">
        <ele>384</ele>
        <time>2000-11-05T08:32:38+01:00</time>
      </trkpt>
      <trkpt lat="43.36818" lon="5.91555">
        <ele>386</ele>
        <time>2000-11-05T08:32:56+01:00</time>
      </trkpt>
      <trkpt lat="43.3684" lon="5.91565">
        <ele>387</ele>
        <time>2000-11-05T08:33:27+01:00</time>
      </trkpt>
      <trkpt lat="43.36862" lon="5.91575">
        <ele>388</ele>
        <time>2000-11-05T08:33:43+01:00</time>
      </trkpt>
      <trkpt lat="43.36884" lon="5.91566">
        <ele>390</ele>
        <time>2000-11-05T08:33:59+01:00</time>
      </trkpt>
      <trkpt lat="43.36906" lon="5.91554">
        <ele>390</ele>
        <time>2000-11-05T08:34:22+01:00</time>
      </trkpt>
      <trkpt lat="43.36924" lon="5.91534">
        <ele>390</ele>
        <time>2000-11-05T08:34:42+01:00</time>
      </trkpt>
      <trkpt lat="43.36947" lon="5.91527">
        <ele>390</ele>
        <time>2000-11-05T08:35:05+01:00</time>
      </trkpt>
      <trkpt lat="43.36967" lon="5.9154">
        <ele>390</ele>
        <time>2000-11-05T08:35:29+01:00</time>
      </trkpt>
      <trkpt lat="43.36978" lon="5.91568">
        <ele>390</ele>
        <time>2000-11-05T08:35:47+01:00</time>
      </trkpt>
      <trkpt lat="43.36973" lon="5.91599">
        <ele>390</ele>
        <time>2000-11-05T08:36:10+01:00</time>
      </trkpt>
      <trkpt lat="43.36985" lon="5.91629">
        <ele>390</ele>
        <time>2000-11-05T08:37:28+01:00</time>
      </trkpt>
      <trkpt lat="43.3698" lon="5.91661">
        <ele>390</ele>
        <time>2000-11-05T08:37:39+01:00</time>
      </trkpt>
      <trkpt lat="43.36977" lon="5.91692">
        <ele>390</ele>
        <time>2000-11-05T08:37:54+01:00</time>
      </trkpt>
      <trkpt lat="43.36977" lon="5.91725">
        <ele>388</ele>
        <time>2000-11-05T08:38:11+01:00</time>
      </trkpt>
      <trkpt lat="43.36973" lon="5.91757">
        <ele>386</ele>
        <time>2000-11-05T08:38:26+01:00</time>
      </trkpt>
      <trkpt lat="43.36984" lon="5.91785">
        <ele>384</ele>
        <time>2000-11-05T08:38:44+01:00</time>
      </trkpt>
      <trkpt lat="43.3699" lon="5.91817">
        <ele>380</ele>
        <time>2000-11-05T08:39:04+01:00</time>
      </trkpt>
      <trkpt lat="43.37002" lon="5.91844">
        <ele>374</ele>
        <time>2000-11-05T08:39:25+01:00</time>
      </trkpt>
      <trkpt lat="43.37018" lon="5.91868">
        <ele>370</ele>
        <time>2000-11-05T08:39:48+01:00</time>
      </trkpt>
      <trkpt lat="43.37025" lon="5.91899">
        <ele>367</ele>
        <time>2000-11-05T08:40:08+01:00</time>
      </trkpt>
      <trkpt lat="43.37025" lon="5.9193">
        <ele>363</ele>
        <time>2000-11-05T08:40:26+01:00</time>
      </trkpt>
      <trkpt lat="43.37013" lon="5.91957">
        <ele>361</ele>
        <time>2000-11-05T08:40:47+01:00</time>
      </trkpt>
      <trkpt lat="43.37" lon="5.91984">
        <ele>359</ele>
        <time>2000-11-05T08:41:06+01:00</time>
      </trkpt>
      <trkpt lat="43.36985" lon="5.92008">
        <ele>356</ele>
        <time>2000-11-05T08:41:28+01:00</time>
      </trkpt>
      <trkpt lat="43.36966" lon="5.92027">
        <ele>356</ele>
        <time>2000-11-05T08:41:53+01:00</time>
      </trkpt>
      <trkpt lat="43.36948" lon="5.92049">
        <ele>354</ele>
        <time>2000-11-05T08:42:36+01:00</time>
      </trkpt>
      <trkpt lat="43.3693" lon="5.92069">
        <ele>354</ele>
        <time>2000-11-05T08:42:50+01:00</time>
      </trkpt>
      <trkpt lat="43.36922" lon="5.92099">
        <ele>347</ele>
        <time>2000-11-05T08:43:06+01:00</time>
      </trkpt>
      <trkpt lat="43.36906" lon="5.9212">
        <ele>347</ele>
        <time>2000-11-05T08:43:28+01:00</time>
      </trkpt>
      <trkpt lat="43.36909" lon="5.92152">
        <ele>333</ele>
        <time>2000-11-05T08:43:48+01:00</time>
      </trkpt>
      <trkpt lat="43.36928" lon="5.92133">
        <ele>332</ele>
        <time>2000-11-05T08:44:45+01:00</time>
      </trkpt>
      <trkpt lat="43.36948" lon="5.92115">
        <ele>328</ele>
        <time>2000-11-05T08:45:13+01:00</time>
      </trkpt>
      <trkpt lat="43.36963" lon="5.92092">
        <ele>330</ele>
        <time>2000-11-05T08:45:45+01:00</time>
      </trkpt>
      <trkpt lat="43.36975" lon="5.92066">
        <ele>336</ele>
        <time>2000-11-05T08:46:10+01:00</time>
      </trkpt>
      <trkpt lat="43.36997" lon="5.92057">
        <ele>327</ele>
        <time>2000-11-05T08:46:26+01:00</time>
      </trkpt>
      <trkpt lat="43.37011" lon="5.92032">
        <ele>332</ele>
        <time>2000-11-05T08:46:49+01:00</time>
      </trkpt>
      <trkpt lat="43.37022" lon="5.92004">
        <ele>340</ele>
        <time>2000-11-05T08:47:07+01:00</time>
      </trkpt>
      <trkpt lat="43.37044" lon="5.91993">
        <ele>333</ele>
        <time>2000-11-05T08:47:21+01:00</time>
      </trkpt>
      <trkpt lat="43.37067" lon="5.91987">
        <ele>323</ele>
        <time>2000-11-05T08:51:21+01:00</time>
      </trkpt>
      <trkpt lat="43.37085" lon="5.91966">
        <ele>322</ele>
        <time>2000-11-05T08:51:28+01:00</time>
      </trkpt>
      <trkpt lat="43.37107" lon="5.91951">
        <ele>317</ele>
        <time>2000-11-05T08:51:38+01:00</time>
      </trkpt>
      <trkpt lat="43.37132" lon="5.91952">
        <ele>312</ele>
        <time>2000-11-05T08:51:40+01:00</time>
      </trkpt>
      <trkpt lat="43.37157" lon="5.91955">
        <ele>313</ele>
        <time>2000-11-05T08:51:47+01:00</time>
      </trkpt>
      <trkpt lat="43.37177" lon="5.9194">
        <ele>311</ele>
        <time>2000-11-05T08:52:32+01:00</time>
      </trkpt>
      <trkpt lat="43.372" lon="5.91929">
        <ele>311</ele>
        <time>2000-11-05T08:54:24+01:00</time>
      </trkpt>
      <trkpt lat="43.37223" lon="5.91926">
        <ele>311</ele>
        <time>2000-11-05T08:54:30+01:00</time>
      </trkpt>
      <trkpt lat="43.37243" lon="5.91912">
        <ele>311</ele>
        <time>2000-11-05T08:54:38+01:00</time>
      </trkpt>
      <trkpt lat="43.37266" lon="5.91905">
        <ele>311</ele>
        <time>2000-11-05T08:56:34+01:00</time>
      </trkpt>
      <trkpt lat="43.37288" lon="5.91911">
        <ele>311</ele>
        <time>2000-11-05T08:57:04+01:00</time>
      </trkpt>
      <trkpt lat="43.37313" lon="5.91908">
        <ele>313</ele>
        <time>2000-11-05T08:57:25+01:00</time>
      </trkpt>
      <trkpt lat="43.37322" lon="5.9188">
        <ele>311</ele>
        <time>2000-11-05T08:58:51+01:00</time>
      </trkpt>
      <trkpt lat="43.3734" lon="5.91857">
        <ele>310</ele>
        <time>2000-11-05T08:58:56+01:00</time>
      </trkpt>
      <trkpt lat="43.37346" lon="5.91823">
        <ele>309</ele>
        <time>2000-11-05T09:01:40+01:00</time>
      </trkpt>
      <trkpt lat="43.37363" lon="5.91797">
        <ele>305</ele>
        <time>2000-11-05T09:01:45+01:00</time>
      </trkpt>
      <trkpt lat="43.37378" lon="5.9177">
        <ele>312</ele>
        <time>2000-11-05T09:01:55+01:00</time>
      </trkpt>
      <trkpt lat="43.37392" lon="5.91743">
        <ele>316</ele>
        <time>2000-11-05T09:02:04+01:00</time>
      </trkpt>
      <trkpt lat="43.3738" lon="5.91715">
        <ele>308</ele>
        <time>2000-11-05T09:02:11+01:00</time>
      </trkpt>
      <trkpt lat="43.37385" lon="5.91685">
        <ele>305</ele>
        <time>2000-11-05T09:02:21+01:00</time>
      </trkpt>
      <trkpt lat="43.37391" lon="5.91652">
        <ele>302</ele>
        <time>2000-11-05T09:02:31+01:00</time>
      </trkpt>
      <trkpt lat="43.37398" lon="5.91621">
        <ele>305</ele>
        <time>2000-11-05T09:02:50+01:00</time>
      </trkpt>
      <trkpt lat="43.37414" lon="5.91598">
        <ele>305</ele>
        <time>2000-11-05T09:03:12+01:00</time>
      </trkpt>
      <trkpt lat="43.37433" lon="5.91572">
        <ele>310</ele>
        <time>2000-11-05T09:04:16+01:00</time>
      </trkpt>
      <trkpt lat="43.37431" lon="5.91541">
        <ele>305</ele>
        <time>2000-11-05T09:04:29+01:00</time>
      </trkpt>
      <trkpt lat="43.37436" lon="5.91511">
        <ele>304</ele>
        <time>2000-11-05T09:04:49+01:00</time>
      </trkpt>
      <trkpt lat="43.37446" lon="5.91481">
        <ele>304</ele>
        <time>2000-11-05T09:05:59+01:00</time>
      </trkpt>
      <trkpt lat="43.37468" lon="5.91472">
        <ele>302</ele>
        <time>2000-11-05T09:06:16+01:00</time>
      </trkpt>
      <trkpt lat="43.37489" lon="5.91457">
        <ele>310</ele>
        <time>2000-11-05T09:06:55+01:00</time>
      </trkpt>
      <trkpt lat="43.37509" lon="5.91474">
        <ele>306</ele>
        <time>2000-11-05T09:07:09+01:00</time>
      </trkpt>
      <trkpt lat="43.37562" lon="5.91476">
        <ele>311</ele>
        <time>2000-11-05T09:11:10+01:00</time>
      </trkpt>
      <trkpt lat="43.37583" lon="5.91487">
        <ele>304</ele>
        <time>2000-11-05T09:12:22+01:00</time>
      </trkpt>
      <trkpt lat="43.37594" lon="5.91456">
        <ele>315</ele>
        <time>2000-11-05T09:14:29+01:00</time>
      </trkpt>
      <trkpt lat="43.3761" lon="5.91433">
        <ele>320</ele>
        <time>2000-11-05T09:14:39+01:00</time>
      </trkpt>
      <trkpt lat="43.37634" lon="5.91421">
        <ele>318</ele>
        <time>2000-11-05T09:14:54+01:00</time>
      </trkpt>
      <trkpt lat="43.37656" lon="5.91409">
        <ele>318</ele>
        <time>2000-11-05T09:15:04+01:00</time>
      </trkpt>
      <trkpt lat="43.37679" lon="5.91408">
        <ele>315</ele>
        <time>2000-11-05T09:27:30+01:00</time>
      </trkpt>
      <trkpt lat="43.37698" lon="5.91389">
        <ele>319</ele>
        <time>2000-11-05T09:27:38+01:00</time>
      </trkpt>
      <trkpt lat="43.37719" lon="5.91374">
        <ele>327</ele>
        <time>2000-11-05T09:27:51+01:00</time>
      </trkpt>
      <trkpt lat="43.37742" lon="5.91375">
        <ele>331</ele>
        <time>2000-11-05T09:28:02+01:00</time>
      </trkpt>
      <trkpt lat="43.37762" lon="5.91389">
        <ele>332</ele>
        <time>2000-11-05T09:33:53+01:00</time>
      </trkpt>
      <trkpt lat="43.37783" lon="5.914">
        <ele>338</ele>
        <time>2000-11-05T09:34:04+01:00</time>
      </trkpt>
      <trkpt lat="43.37805" lon="5.91412">
        <ele>347</ele>
        <time>2000-11-05T09:34:46+01:00</time>
      </trkpt>
      <trkpt lat="43.3785" lon="5.91426">
        <ele>363</ele>
        <time>2000-11-05T09:35:22+01:00</time>
      </trkpt>
      <trkpt lat="43.37868" lon="5.91447">
        <ele>363</ele>
        <time>2000-11-05T09:36:30+01:00</time>
      </trkpt>
      <trkpt lat="43.3789" lon="5.91455">
        <ele>365</ele>
        <time>2000-11-05T09:36:46+01:00</time>
      </trkpt>
      <trkpt lat="43.37909" lon="5.91438">
        <ele>365</ele>
        <time>2000-11-05T09:37:26+01:00</time>
      </trkpt>
      <trkpt lat="43.3791" lon="5.91406">
        <ele>372</ele>
        <time>2000-11-05T09:38:09+01:00</time>
      </trkpt>
      <trkpt lat="43.37915" lon="5.91375">
        <ele>377</ele>
        <time>2000-11-05T09:38:33+01:00</time>
      </trkpt>
      <trkpt lat="43.37922" lon="5.91346">
        <ele>381</ele>
        <time>2000-11-05T09:38:55+01:00</time>
      </trkpt>
      <trkpt lat="43.37939" lon="5.91305">
        <ele>388</ele>
        <time>2000-11-05T09:40:32+01:00</time>
      </trkpt>
      <trkpt lat="43.37941" lon="5.91273">
        <ele>390</ele>
        <time>2000-11-05T09:40:45+01:00</time>
      </trkpt>
      <trkpt lat="43.37941" lon="5.9124">
        <ele>392</ele>
        <time>2000-11-05T09:41:08+01:00</time>
      </trkpt>
      <trkpt lat="43.3795" lon="5.91212">
        <ele>396</ele>
        <time>2000-11-05T09:41:39+01:00</time>
      </trkpt>
      <trkpt lat="43.37959" lon="5.91183">
        <ele>399</ele>
        <time>2000-11-05T09:42:05+01:00</time>
      </trkpt>
      <trkpt lat="43.37961" lon="5.91152">
        <ele>402</ele>
        <time>2000-11-05T09:42:49+01:00</time>
      </trkpt>
      <trkpt lat="43.37956" lon="5.91122">
        <ele>404</ele>
        <time>2000-11-05T09:44:20+01:00</time>
      </trkpt>
      <trkpt lat="43.37948" lon="5.91092">
        <ele>405</ele>
        <time>2000-11-05T09:44:50+01:00</time>
      </trkpt>
      <trkpt lat="43.37951" lon="5.91062">
        <ele>409</ele>
        <time>2000-11-05T09:45:17+01:00</time>
      </trkpt>
      <trkpt lat="43.37942" lon="5.91033">
        <ele>410</ele>
        <time>2000-11-05T09:45:37+01:00</time>
      </trkpt>
      <trkpt lat="43.3793" lon="5.91006">
        <ele>411</ele>
        <time>2000-11-05T09:45:57+01:00</time>
      </trkpt>
      <trkpt lat="43.37924" lon="5.90975">
        <ele>412</ele>
        <time>2000-11-05T09:46:35+01:00</time>
      </trkpt>
      <trkpt lat="43.37919" lon="5.90944">
        <ele>413</ele>
        <time>2000-11-05T09:47:01+01:00</time>
      </trkpt>
      <trkpt lat="43.37937" lon="5.90965">
        <ele>414</ele>
        <time>2000-11-05T09:50:50+01:00</time>
      </trkpt>
      <trkpt lat="43.37954" lon="5.90987">
        <ele>416</ele>
        <time>2000-11-05T09:51:10+01:00</time>
      </trkpt>
      <trkpt lat="43.3797" lon="5.91008">
        <ele>418</ele>
        <time>2000-11-05T09:51:28+01:00</time>
      </trkpt>
      <trkpt lat="43.3799" lon="5.91024">
        <ele>419</ele>
        <time>2000-11-05T09:51:53+01:00</time>
      </trkpt>
      <trkpt lat="43.38012" lon="5.91031">
        <ele>421</ele>
        <time>2000-11-05T09:52:20+01:00</time>
      </trkpt>
      <trkpt lat="43.38035" lon="5.91034">
        <ele>424</ele>
        <time>2000-11-05T09:53:06+01:00</time>
      </trkpt>
      <trkpt lat="43.38056" lon="5.91046">
        <ele>426</ele>
        <time>2000-11-05T09:53:17+01:00</time>
      </trkpt>
      <trkpt lat="43.38072" lon="5.91022">
        <ele>429</ele>
        <time>2000-11-05T09:53:43+01:00</time>
      </trkpt>
      <trkpt lat="43.38095" lon="5.9103">
        <ele>432</ele>
        <time>2000-11-05T09:54:00+01:00</time>
      </trkpt>
      <trkpt lat="43.38116" lon="5.91039">
        <ele>437</ele>
        <time>2000-11-05T09:56:00+01:00</time>
      </trkpt>
      <trkpt lat="43.38138" lon="5.9105">
        <ele>440</ele>
        <time>2000-11-05T09:56:22+01:00</time>
      </trkpt>
      <trkpt lat="43.38159" lon="5.91061">
        <ele>443</ele>
        <time>2000-11-05T09:56:45+01:00</time>
      </trkpt>
      <trkpt lat="43.38168" lon="5.9109">
        <ele>444</ele>
        <time>2000-11-05T09:57:09+01:00</time>
      </trkpt>
      <trkpt lat="43.38189" lon="5.91105">
        <ele>448</ele>
        <time>2000-11-05T09:57:32+01:00</time>
      </trkpt>
      <trkpt lat="43.38211" lon="5.91093">
        <ele>449</ele>
        <time>2000-11-05T09:57:55+01:00</time>
      </trkpt>
      <trkpt lat="43.38232" lon="5.91082">
        <ele>449</ele>
        <time>2000-11-05T09:58:20+01:00</time>
      </trkpt>
      <trkpt lat="43.38254" lon="5.91092">
        <ele>445</ele>
        <time>2000-11-05T09:58:42+01:00</time>
      </trkpt>
      <trkpt lat="43.38274" lon="5.91105">
        <ele>441</ele>
        <time>2000-11-05T09:59:18+01:00</time>
      </trkpt>
      <trkpt lat="43.38308" lon="5.91139">
        <ele>433</ele>
        <time>2000-11-05T10:02:17+01:00</time>
      </trkpt>
      <trkpt lat="43.38332" lon="5.9114">
        <ele>427</ele>
        <time>2000-11-05T10:02:30+01:00</time>
      </trkpt>
      <trkpt lat="43.38353" lon="5.91155">
        <ele>422</ele>
        <time>2000-11-05T10:02:45+01:00</time>
      </trkpt>
      <trkpt lat="43.38371" lon="5.91174">
        <ele>417</ele>
        <time>2000-11-05T10:03:06+01:00</time>
      </trkpt>
      <trkpt lat="43.38393" lon="5.91162">
        <ele>412</ele>
        <time>2000-11-05T10:04:17+01:00</time>
      </trkpt>
      <trkpt lat="43.38412" lon="5.91144">
        <ele>409</ele>
        <time>2000-11-05T10:04:30+01:00</time>
      </trkpt>
      <trkpt lat="43.38425" lon="5.91116">
        <ele>409</ele>
        <time>2000-11-05T10:05:25+01:00</time>
      </trkpt>
      <trkpt lat="43.38444" lon="5.91095">
        <ele>409</ele>
        <time>2000-11-05T10:05:34+01:00</time>
      </trkpt>
      <trkpt lat="43.38462" lon="5.91076">
        <ele>408</ele>
        <time>2000-11-05T10:05:51+01:00</time>
      </trkpt>
      <trkpt lat="43.38481" lon="5.9106">
        <ele>407</ele>
        <time>2000-11-05T10:06:13+01:00</time>
      </trkpt>
      <trkpt lat="43.38492" lon="5.91088">
        <ele>407</ele>
        <time>2000-11-05T10:07:00+01:00</time>
      </trkpt>
      <trkpt lat="43.38494" lon="5.91119">
        <ele>408</ele>
        <time>2000-11-05T10:07:23+01:00</time>
      </trkpt>
      <trkpt lat="43.38507" lon="5.91144">
        <ele>410</ele>
        <time>2000-11-05T10:07:39+01:00</time>
      </trkpt>
      <trkpt lat="43.3852" lon="5.91172">
        <ele>414</ele>
        <time>2000-11-05T10:08:11+01:00</time>
      </trkpt>
      <trkpt lat="43.38531" lon="5.91198">
        <ele>419</ele>
        <time>2000-11-05T10:08:41+01:00</time>
      </trkpt>
      <trkpt lat="43.38544" lon="5.91223">
        <ele>423</ele>
        <time>2000-11-05T10:09:07+01:00</time>
      </trkpt>
      <trkpt lat="43.38559" lon="5.91248">
        <ele>427</ele>
        <time>2000-11-05T10:09:44+01:00</time>
      </trkpt>
      <trkpt lat="43.38571" lon="5.91276">
        <ele>430</ele>
        <time>2000-11-05T10:10:16+01:00</time>
      </trkpt>
      <trkpt lat="43.3859" lon="5.91293">
        <ele>435</ele>
        <time>2000-11-05T10:10:46+01:00</time>
      </trkpt>
      <trkpt lat="43.38604" lon="5.91319">
        <ele>439</ele>
        <time>2000-11-05T10:11:20+01:00</time>
      </trkpt>
      <trkpt lat="43.38608" lon="5.91349">
        <ele>442</ele>
        <time>2000-11-05T10:11:47+01:00</time>
      </trkpt>
      <trkpt lat="43.38623" lon="5.91373">
        <ele>446</ele>
        <time>2000-11-05T10:12:17+01:00</time>
      </trkpt>
      <trkpt lat="43.38635" lon="5.914">
        <ele>450</ele>
        <time>2000-11-05T10:12:44+01:00</time>
      </trkpt>
      <trkpt lat="43.38652" lon="5.9142">
        <ele>457</ele>
        <time>2000-11-05T10:13:11+01:00</time>
      </trkpt>
      <trkpt lat="43.38658" lon="5.91452">
        <ele>461</ele>
        <time>2000-11-05T10:19:10+01:00</time>
      </trkpt>
      <trkpt lat="43.38666" lon="5.91481">
        <ele>467</ele>
        <time>2000-11-05T10:19:26+01:00</time>
      </trkpt>
      <trkpt lat="43.38651" lon="5.91505">
        <ele>465</ele>
        <time>2000-11-05T10:19:47+01:00</time>
      </trkpt>
      <trkpt lat="43.38656" lon="5.91536">
        <ele>469</ele>
        <time>2000-11-05T10:21:52+01:00</time>
      </trkpt>
      <trkpt lat="43.38658" lon="5.91568">
        <ele>473</ele>
        <time>2000-11-05T10:22:12+01:00</time>
      </trkpt>
      <trkpt lat="43.38653" lon="5.91598">
        <ele>475</ele>
        <time>2000-11-05T10:22:38+01:00</time>
      </trkpt>
      <trkpt lat="43.38637" lon="5.9162">
        <ele>472</ele>
        <time>2000-11-05T10:23:01+01:00</time>
      </trkpt>
      <trkpt lat="43.38633" lon="5.91651">
        <ele>471</ele>
        <time>2000-11-05T10:23:19+01:00</time>
      </trkpt>
      <trkpt lat="43.38655" lon="5.91661">
        <ele>474</ele>
        <time>2000-11-05T10:24:30+01:00</time>
      </trkpt>
      <trkpt lat="43.38676" lon="5.9165">
        <ele>477</ele>
        <time>2000-11-05T10:24:53+01:00</time>
      </trkpt>
      <trkpt lat="43.38699" lon="5.91658">
        <ele>480</ele>
        <time>2000-11-05T10:25:21+01:00</time>
      </trkpt>
      <trkpt lat="43.38722" lon="5.91662">
        <ele>484</ele>
        <time>2000-11-05T10:25:41+01:00</time>
      </trkpt>
      <trkpt lat="43.38742" lon="5.91677">
        <ele>488</ele>
        <time>2000-11-05T10:26:06+01:00</time>
      </trkpt>
      <trkpt lat="43.38762" lon="5.91693">
        <ele>493</ele>
        <time>2000-11-05T10:26:32+01:00</time>
      </trkpt>
      <trkpt lat="43.38771" lon="5.91723">
        <ele>493</ele>
        <time>2000-11-05T10:26:54+01:00</time>
      </trkpt>
      <trkpt lat="43.38785" lon="5.91747">
        <ele>494</ele>
        <time>2000-11-05T10:27:20+01:00</time>
      </trkpt>
      <trkpt lat="43.38802" lon="5.9177">
        <ele>495</ele>
        <time>2000-11-05T10:27:43+01:00</time>
      </trkpt>
      <trkpt lat="43.38818" lon="5.91792">
        <ele>495</ele>
        <time>2000-11-05T10:28:06+01:00</time>
      </trkpt>
      <trkpt lat="43.3884" lon="5.91798">
        <ele>496</ele>
        <time>2000-11-05T10:28:31+01:00</time>
      </trkpt>
      <trkpt lat="43.38864" lon="5.91794">
        <ele>498</ele>
        <time>2000-11-05T10:28:54+01:00</time>
      </trkpt>
      <trkpt lat="43.38886" lon="5.91798">
        <ele>499</ele>
        <time>2000-11-05T10:29:10+01:00</time>
      </trkpt>
      <trkpt lat="43.38907" lon="5.91811">
        <ele>499</ele>
        <time>2000-11-05T10:29:28+01:00</time>
      </trkpt>
      <trkpt lat="43.38929" lon="5.9182">
        <ele>500</ele>
        <time>2000-11-05T10:29:51+01:00</time>
      </trkpt>
      <trkpt lat="43.38952" lon="5.91819">
        <ele>500</ele>
        <time>2000-11-05T10:30:10+01:00</time>
      </trkpt>
      <trkpt lat="43.38975" lon="5.9182">
        <ele>500</ele>
        <time>2000-11-05T10:30:33+01:00</time>
      </trkpt>
      <trkpt lat="43.38998" lon="5.91817">
        <ele>501</ele>
        <time>2000-11-05T10:30:54+01:00</time>
      </trkpt>
      <trkpt lat="43.39015" lon="5.9184">
        <ele>503</ele>
        <time>2000-11-05T10:31:27+01:00</time>
      </trkpt>
      <trkpt lat="43.39035" lon="5.91857">
        <ele>507</ele>
        <time>2000-11-05T10:32:11+01:00</time>
      </trkpt>
      <trkpt lat="43.39056" lon="5.91871">
        <ele>509</ele>
        <time>2000-11-05T10:32:38+01:00</time>
      </trkpt>
      <trkpt lat="43.39075" lon="5.91888">
        <ele>508</ele>
        <time>2000-11-05T10:33:21+01:00</time>
      </trkpt>
      <trkpt lat="43.39094" lon="5.91906">
        <ele>507</ele>
        <time>2000-11-05T10:33:43+01:00</time>
      </trkpt>
      <trkpt lat="43.39107" lon="5.91932">
        <ele>507</ele>
        <time>2000-11-05T10:34:05+01:00</time>
      </trkpt>
      <trkpt lat="43.39115" lon="5.91963">
        <ele>508</ele>
        <time>2000-11-05T10:34:27+01:00</time>
      </trkpt>
      <trkpt lat="43.39119" lon="5.91994">
        <ele>507</ele>
        <time>2000-11-05T10:34:46+01:00</time>
      </trkpt>
      <trkpt lat="43.39121" lon="5.92025">
        <ele>507</ele>
        <time>2000-11-05T10:35:07+01:00</time>
      </trkpt>
      <trkpt lat="43.39127" lon="5.92055">
        <ele>504</ele>
        <time>2000-11-05T10:35:36+01:00</time>
      </trkpt>
      <trkpt lat="43.39134" lon="5.92086">
        <ele>502</ele>
        <time>2000-11-05T10:35:52+01:00</time>
      </trkpt>
      <trkpt lat="43.39149" lon="5.92112">
        <ele>498</ele>
        <time>2000-11-05T10:36:11+01:00</time>
      </trkpt>
      <trkpt lat="43.39154" lon="5.92143">
        <ele>499</ele>
        <time>2000-11-05T10:36:30+01:00</time>
      </trkpt>
      <trkpt lat="43.39163" lon="5.92172">
        <ele>500</ele>
        <time>2000-11-05T10:36:51+01:00</time>
      </trkpt>
      <trkpt lat="43.39176" lon="5.922">
        <ele>500</ele>
        <time>2000-11-05T10:37:12+01:00</time>
      </trkpt>
      <trkpt lat="43.39185" lon="5.92229">
        <ele>500</ele>
        <time>2000-11-05T10:37:32+01:00</time>
      </trkpt>
      <trkpt lat="43.39192" lon="5.92258">
        <ele>500</ele>
        <time>2000-11-05T10:37:55+01:00</time>
      </trkpt>
      <trkpt lat="43.39201" lon="5.92287">
        <ele>500</ele>
        <time>2000-11-05T10:38:15+01:00</time>
      </trkpt>
      <trkpt lat="43.3921" lon="5.92316">
        <ele>500</ele>
        <time>2000-11-05T10:38:35+01:00</time>
      </trkpt>
      <trkpt lat="43.39213" lon="5.92347">
        <ele>500</ele>
        <time>2000-11-05T10:38:55+01:00</time>
      </trkpt>
      <trkpt lat="43.39224" lon="5.92375">
        <ele>500</ele>
        <time>2000-11-05T10:39:17+01:00</time>
      </trkpt>
      <trkpt lat="43.3923" lon="5.92406">
        <ele>500</ele>
        <time>2000-11-05T10:39:37+01:00</time>
      </trkpt>
      <trkpt lat="43.39227" lon="5.92438">
        <ele>500</ele>
        <time>2000-11-05T10:39:58+01:00</time>
      </trkpt>
      <trkpt lat="43.39236" lon="5.92467">
        <ele>500</ele>
        <time>2000-11-05T10:40:15+01:00</time>
      </trkpt>
      <trkpt lat="43.39249" lon="5.92494">
        <ele>500</ele>
        <time>2000-11-05T10:40:37+01:00</time>
      </trkpt>
      <trkpt lat="43.39266" lon="5.92515">
        <ele>497</ele>
        <time>2000-11-05T10:41:02+01:00</time>
      </trkpt>
      <trkpt lat="43.39277" lon="5.92543">
        <ele>496</ele>
        <time>2000-11-05T10:46:50+01:00</time>
      </trkpt>
      <trkpt lat="43.39297" lon="5.92559">
        <ele>483</ele>
        <time>2000-11-05T10:48:17+01:00</time>
      </trkpt>
      <trkpt lat="43.39296" lon="5.9259">
        <ele>481</ele>
        <time>2000-11-05T10:48:42+01:00</time>
      </trkpt>
      <trkpt lat="43.39295" lon="5.92622">
        <ele>477</ele>
        <time>2000-11-05T10:49:12+01:00</time>
      </trkpt>
      <trkpt lat="43.39293" lon="5.92653">
        <ele>471</ele>
        <time>2000-11-05T10:49:40+01:00</time>
      </trkpt>
      <trkpt lat="43.39286" lon="5.92683">
        <ele>468</ele>
        <time>2000-11-05T10:50:11+01:00</time>
      </trkpt>
      <trkpt lat="43.39307" lon="5.92672">
        <ele>457</ele>
        <time>2000-11-05T10:51:24+01:00</time>
      </trkpt>
      <trkpt lat="43.39326" lon="5.92655">
        <ele>449</ele>
        <time>2000-11-05T10:51:46+01:00</time>
      </trkpt>
      <trkpt lat="43.39341" lon="5.92632">
        <ele>446</ele>
        <time>2000-11-05T10:52:10+01:00</time>
      </trkpt>
      <trkpt lat="43.39358" lon="5.92611">
        <ele>443</ele>
        <time>2000-11-05T10:52:33+01:00</time>
      </trkpt>
      <trkpt lat="43.39378" lon="5.92592">
        <ele>437</ele>
        <time>2000-11-05T10:53:49+01:00</time>
      </trkpt>
      <trkpt lat="43.39393" lon="5.92569">
        <ele>433</ele>
        <time>2000-11-05T10:54:12+01:00</time>
      </trkpt>
      <trkpt lat="43.39407" lon="5.92545">
        <ele>429</ele>
        <time>2000-11-05T10:54:37+01:00</time>
      </trkpt>
      <trkpt lat="43.39423" lon="5.92522">
        <ele>423</ele>
        <time>2000-11-05T10:55:20+01:00</time>
      </trkpt>
      <trkpt lat="43.39441" lon="5.92501">
        <ele>417</ele>
        <time>2000-11-05T10:56:28+01:00</time>
      </trkpt>
      <trkpt lat="43.39464" lon="5.92502">
        <ele>407</ele>
        <time>2000-11-05T10:57:22+01:00</time>
      </trkpt>
      <trkpt lat="43.39486" lon="5.925">
        <ele>397</ele>
        <time>2000-11-05T10:57:52+01:00</time>
      </trkpt>
      <trkpt lat="43.39505" lon="5.9248">
        <ele>392</ele>
        <time>2000-11-05T10:58:46+01:00</time>
      </trkpt>
      <trkpt lat="43.39529" lon="5.92476">
        <ele>385</ele>
        <time>2000-11-05T10:59:55+01:00</time>
      </trkpt>
      <trkpt lat="43.39551" lon="5.9247">
        <ele>379</ele>
        <time>2000-11-05T11:00:03+01:00</time>
      </trkpt>
      <trkpt lat="43.39573" lon="5.92464">
        <ele>375</ele>
        <time>2000-11-05T11:00:28+01:00</time>
      </trkpt>
      <trkpt lat="43.39591" lon="5.92443">
        <ele>375</ele>
        <time>2000-11-05T11:01:49+01:00</time>
      </trkpt>
      <trkpt lat="43.39614" lon="5.92446">
        <ele>370</ele>
        <time>2000-11-05T11:02:01+01:00</time>
      </trkpt>
      <trkpt lat="43.39637" lon="5.92448">
        <ele>365</ele>
        <time>2000-11-05T11:02:27+01:00</time>
      </trkpt>
      <trkpt lat="43.39658" lon="5.92436">
        <ele>360</ele>
        <time>2000-11-05T11:02:46+01:00</time>
      </trkpt>
      <trkpt lat="43.39676" lon="5.92416">
        <ele>356</ele>
        <time>2000-11-05T11:03:28+01:00</time>
      </trkpt>
      <trkpt lat="43.39695" lon="5.92397">
        <ele>351</ele>
        <time>2000-11-05T11:03:57+01:00</time>
      </trkpt>
      <trkpt lat="43.39701" lon="5.92366">
        <ele>349</ele>
        <time>2000-11-05T11:04:21+01:00</time>
      </trkpt>
      <trkpt lat="43.39721" lon="5.92351">
        <ele>346</ele>
        <time>2000-11-05T11:04:46+01:00</time>
      </trkpt>
      <trkpt lat="43.39731" lon="5.9238">
        <ele>343</ele>
        <time>2000-11-05T11:06:37+01:00</time>
      </trkpt>
      <trkpt lat="43.39732" lon="5.92412">
        <ele>341</ele>
        <time>2000-11-05T11:07:05+01:00</time>
      </trkpt>
      <trkpt lat="43.39733" lon="5.92444">
        <ele>338</ele>
        <time>2000-11-05T11:07:25+01:00</time>
      </trkpt>
      <trkpt lat="43.39733" lon="5.92476">
        <ele>336</ele>
        <time>2000-11-05T11:07:45+01:00</time>
      </trkpt>
      <trkpt lat="43.3974" lon="5.92507">
        <ele>334</ele>
        <time>2000-11-05T11:08:08+01:00</time>
      </trkpt>
      <trkpt lat="43.39739" lon="5.92538">
        <ele>332</ele>
        <time>2000-11-05T11:08:46+01:00</time>
      </trkpt>
      <trkpt lat="43.39737" lon="5.92569">
        <ele>328</ele>
        <time>2000-11-05T11:09:11+01:00</time>
      </trkpt>
      <trkpt lat="43.39723" lon="5.92593">
        <ele>325</ele>
        <time>2000-11-05T11:09:40+01:00</time>
      </trkpt>
      <trkpt lat="43.39718" lon="5.92623">
        <ele>322</ele>
        <time>2000-11-05T11:10:07+01:00</time>
      </trkpt>
      <trkpt lat="43.39711" lon="5.92655">
        <ele>323</ele>
        <time>2000-11-05T11:10:22+01:00</time>
      </trkpt>
      <trkpt lat="43.39717" lon="5.92685">
        <ele>325</ele>
        <time>2000-11-05T11:10:36+01:00</time>
      </trkpt>
      <trkpt lat="43.39733" lon="5.92707">
        <ele>325</ele>
        <time>2000-11-05T11:10:59+01:00</time>
      </trkpt>
      <trkpt lat="43.39741" lon="5.92737">
        <ele>324</ele>
        <time>2000-11-05T11:11:20+01:00</time>
      </trkpt>
      <trkpt lat="43.39734" lon="5.92767">
        <ele>322</ele>
        <time>2000-11-05T11:11:39+01:00</time>
      </trkpt>
      <trkpt lat="43.39731" lon="5.92798">
        <ele>320</ele>
        <time>2000-11-05T11:11:58+01:00</time>
      </trkpt>
      <trkpt lat="43.39711" lon="5.92818">
        <ele>321</ele>
        <time>2000-11-05T11:16:08+01:00</time>
      </trkpt>
      <trkpt lat="43.39689" lon="5.92829">
        <ele>322</ele>
        <time>2000-11-05T11:16:24+01:00</time>
      </trkpt>
      <trkpt lat="43.39667" lon="5.92838">
        <ele>320</ele>
        <time>2000-11-05T11:16:34+01:00</time>
      </trkpt>
      <trkpt lat="43.39649" lon="5.92858">
        <ele>316</ele>
        <time>2000-11-05T11:16:57+01:00</time>
      </trkpt>
      <trkpt lat="43.39633" lon="5.92883">
        <ele>315</ele>
        <time>2000-11-05T11:17:15+01:00</time>
      </trkpt>
      <trkpt lat="43.39611" lon="5.92888">
        <ele>319</ele>
        <time>2000-11-05T11:17:42+01:00</time>
      </trkpt>
      <trkpt lat="43.39595" lon="5.92911">
        <ele>324</ele>
        <time>2000-11-05T11:18:07+01:00</time>
      </trkpt>
      <trkpt lat="43.39602" lon="5.9294">
        <ele>324</ele>
        <time>2000-11-05T11:18:19+01:00</time>
      </trkpt>
      <trkpt lat="43.3961" lon="5.92971">
        <ele>322</ele>
        <time>2000-11-05T11:18:40+01:00</time>
      </trkpt>
      <trkpt lat="43.39626" lon="5.92994">
        <ele>318</ele>
        <time>2000-11-05T11:19:00+01:00</time>
      </trkpt>
      <trkpt lat="43.39614" lon="5.9302">
        <ele>320</ele>
        <time>2000-11-05T11:19:19+01:00</time>
      </trkpt>
      <trkpt lat="43.396" lon="5.93047">
        <ele>320</ele>
        <time>2000-11-05T11:19:40+01:00</time>
      </trkpt>
      <trkpt lat="43.39596" lon="5.93078">
        <ele>317</ele>
        <time>2000-11-05T11:19:57+01:00</time>
      </trkpt>
      <trkpt lat="43.39597" lon="5.93111">
        <ele>313</ele>
        <time>2000-11-05T11:20:41+01:00</time>
      </trkpt>
      <trkpt lat="43.39585" lon="5.93139">
        <ele>312</ele>
        <time>2000-11-05T11:20:54+01:00</time>
      </trkpt>
      <trkpt lat="43.39575" lon="5.93167">
        <ele>309</ele>
        <time>2000-11-05T11:21:09+01:00</time>
      </trkpt>
      <trkpt lat="43.3958" lon="5.93197">
        <ele>304</ele>
        <time>2000-11-05T11:21:35+01:00</time>
      </trkpt>
      <trkpt lat="43.39575" lon="5.93228">
        <ele>300</ele>
        <time>2000-11-05T11:22:10+01:00</time>
      </trkpt>
      <trkpt lat="43.39565" lon="5.93257">
        <ele>297</ele>
        <time>2000-11-05T11:22:42+01:00</time>
      </trkpt>
      <trkpt lat="43.39558" lon="5.93291">
        <ele>293</ele>
        <time>2000-11-05T11:23:31+01:00</time>
      </trkpt>
      <trkpt lat="43.39553" lon="5.93322">
        <ele>288</ele>
        <time>2000-11-05T11:23:46+01:00</time>
      </trkpt>
      <trkpt lat="43.39532" lon="5.93336">
        <ele>286</ele>
        <time>2000-11-05T11:24:06+01:00</time>
      </trkpt>
      <trkpt lat="43.39521" lon="5.93364">
        <ele>281</ele>
        <time>2000-11-05T11:24:30+01:00</time>
      </trkpt>
      <trkpt lat="43.39509" lon="5.93392">
        <ele>277</ele>
        <time>2000-11-05T11:25:03+01:00</time>
      </trkpt>
      <trkpt lat="43.39495" lon="5.93422">
        <ele>275</ele>
        <time>2000-11-05T11:25:45+01:00</time>
      </trkpt>
      <trkpt lat="43.39485" lon="5.93451">
        <ele>274</ele>
        <time>2000-11-05T11:25:56+01:00</time>
      </trkpt>
      <trkpt lat="43.39444" lon="5.93466">
        <ele>275</ele>
        <time>2000-11-05T11:26:39+01:00</time>
      </trkpt>
      <trkpt lat="43.39422" lon="5.93465">
        <ele>276</ele>
        <time>2000-11-05T11:27:12+01:00</time>
      </trkpt>
      <trkpt lat="43.394" lon="5.93472">
        <ele>277</ele>
        <time>2000-11-05T11:27:39+01:00</time>
      </trkpt>
      <trkpt lat="43.39379" lon="5.93488">
        <ele>276</ele>
        <time>2000-11-05T11:27:57+01:00</time>
      </trkpt>
      <trkpt lat="43.39356" lon="5.93478">
        <ele>277</ele>
        <time>2000-11-05T11:30:21+01:00</time>
      </trkpt>
      <trkpt lat="43.39331" lon="5.93485">
        <ele>275</ele>
        <time>2000-11-05T11:30:33+01:00</time>
      </trkpt>
      <trkpt lat="43.39311" lon="5.93467">
        <ele>279</ele>
        <time>2000-11-05T11:30:52+01:00</time>
      </trkpt>
      <trkpt lat="43.39291" lon="5.93453">
        <ele>283</ele>
        <time>2000-11-05T11:31:35+01:00</time>
      </trkpt>
      <trkpt lat="43.39262" lon="5.9344">
        <ele>285</ele>
        <time>2000-11-05T11:31:44+01:00</time>
      </trkpt>
      <trkpt lat="43.3924" lon="5.93433">
        <ele>284</ele>
        <time>2000-11-05T11:31:53+01:00</time>
      </trkpt>
      <trkpt lat="43.39218" lon="5.9344">
        <ele>279</ele>
        <time>2000-11-05T11:32:01+01:00</time>
      </trkpt>
      <trkpt lat="43.39194" lon="5.9345">
        <ele>277</ele>
        <time>2000-11-05T11:32:30+01:00</time>
      </trkpt>
      <trkpt lat="43.39173" lon="5.93437">
        <ele>280</ele>
        <time>2000-11-05T11:32:46+01:00</time>
      </trkpt>
      <trkpt lat="43.3915" lon="5.93445">
        <ele>279</ele>
        <time>2000-11-05T11:32:58+01:00</time>
      </trkpt>
      <trkpt lat="43.39128" lon="5.93449">
        <ele>278</ele>
        <time>2000-11-05T11:33:13+01:00</time>
      </trkpt>
      <trkpt lat="43.3911" lon="5.9343">
        <ele>282</ele>
        <time>2000-11-05T11:33:35+01:00</time>
      </trkpt>
      <trkpt lat="43.39088" lon="5.93416">
        <ele>280</ele>
        <time>2000-11-05T11:33:58+01:00</time>
      </trkpt>
      <trkpt lat="43.39077" lon="5.93389">
        <ele>283</ele>
        <time>2000-11-05T11:34:16+01:00</time>
      </trkpt>
      <trkpt lat="43.39077" lon="5.93358">
        <ele>283</ele>
        <time>2000-11-05T11:34:36+01:00</time>
      </trkpt>
      <trkpt lat="43.3908" lon="5.93326">
        <ele>281</ele>
        <time>2000-11-05T11:35:01+01:00</time>
      </trkpt>
      <trkpt lat="43.39078" lon="5.93295">
        <ele>279</ele>
        <time>2000-11-05T11:36:28+01:00</time>
      </trkpt>
      <trkpt lat="43.39063" lon="5.93268">
        <ele>277</ele>
        <time>2000-11-05T11:36:36+01:00</time>
      </trkpt>
      <trkpt lat="43.39054" lon="5.93238">
        <ele>276</ele>
        <time>2000-11-05T11:36:45+01:00</time>
      </trkpt>
      <trkpt lat="43.39046" lon="5.93209">
        <ele>277</ele>
        <time>2000-11-05T11:36:55+01:00</time>
      </trkpt>
      <trkpt lat="43.39035" lon="5.93181">
        <ele>277</ele>
        <time>2000-11-05T11:37:42+01:00</time>
      </trkpt>
      <trkpt lat="43.39013" lon="5.93189">
        <ele>275</ele>
        <time>2000-11-05T11:39:00+01:00</time>
      </trkpt>
      <trkpt lat="43.38993" lon="5.93174">
        <ele>275</ele>
        <time>2000-11-05T11:39:12+01:00</time>
      </trkpt>
      <trkpt lat="43.38972" lon="5.93158">
        <ele>276</ele>
        <time>2000-11-05T11:39:29+01:00</time>
      </trkpt>
      <trkpt lat="43.38963" lon="5.93129">
        <ele>278</ele>
        <time>2000-11-05T11:39:37+01:00</time>
      </trkpt>
      <trkpt lat="43.38922" lon="5.93128">
        <ele>278</ele>
        <time>2000-11-05T11:42:26+01:00</time>
      </trkpt>
      <trkpt lat="43.38901" lon="5.93109">
        <ele>279</ele>
        <time>2000-11-05T11:42:32+01:00</time>
      </trkpt>
      <trkpt lat="43.38882" lon="5.93091">
        <ele>280</ele>
        <time>2000-11-05T11:42:42+01:00</time>
      </trkpt>
      <trkpt lat="43.38859" lon="5.93087">
        <ele>280</ele>
        <time>2000-11-05T11:42:53+01:00</time>
      </trkpt>
      <trkpt lat="43.38834" lon="5.93083">
        <ele>280</ele>
        <time>2000-11-05T11:43:03+01:00</time>
      </trkpt>
      <trkpt lat="43.38815" lon="5.93066">
        <ele>280</ele>
        <time>2000-11-05T11:43:12+01:00</time>
      </trkpt>
      <trkpt lat="43.38829" lon="5.93091">
        <ele>281</ele>
        <time>2000-11-05T11:44:34+01:00</time>
      </trkpt>
      <trkpt lat="43.38853" lon="5.93095">
        <ele>280</ele>
        <time>2000-11-05T11:44:46+01:00</time>
      </trkpt>
      <trkpt lat="43.38872" lon="5.93112">
        <ele>279</ele>
        <time>2000-11-05T11:45:19+01:00</time>
      </trkpt>
      <trkpt lat="43.38888" lon="5.93134">
        <ele>278</ele>
        <time>2000-11-05T11:45:31+01:00</time>
      </trkpt>
      <trkpt lat="43.38883" lon="5.93167">
        <ele>290</ele>
        <time>2000-11-05T11:46:08+01:00</time>
      </trkpt>
      <trkpt lat="43.38871" lon="5.93139">
        <ele>281</ele>
        <time>2000-11-05T11:46:43+01:00</time>
      </trkpt>
      <trkpt lat="43.38846" lon="5.93132">
        <ele>286</ele>
        <time>2000-11-05T11:48:33+01:00</time>
      </trkpt>
      <trkpt lat="43.38824" lon="5.93125">
        <ele>289</ele>
        <time>2000-11-05T11:48:55+01:00</time>
      </trkpt>
      <trkpt lat="43.38799" lon="5.93138">
        <ele>297</ele>
        <time>2000-11-05T11:49:46+01:00</time>
      </trkpt>
      <trkpt lat="43.38777" lon="5.93148">
        <ele>302</ele>
        <time>2000-11-05T11:49:51+01:00</time>
      </trkpt>
      <trkpt lat="43.38741" lon="5.93178">
        <ele>308</ele>
        <time>2000-11-05T11:51:26+01:00</time>
      </trkpt>
      <trkpt lat="43.38733" lon="5.93207">
        <ele>315</ele>
        <time>2000-11-05T11:52:26+01:00</time>
      </trkpt>
      <trkpt lat="43.38725" lon="5.93238">
        <ele>321</ele>
        <time>2000-11-05T11:52:46+01:00</time>
      </trkpt>
      <trkpt lat="43.38731" lon="5.93269">
        <ele>330</ele>
        <time>2000-11-05T11:53:02+01:00</time>
      </trkpt>
      <trkpt lat="43.38724" lon="5.933">
        <ele>333</ele>
        <time>2000-11-05T11:53:52+01:00</time>
      </trkpt>
      <trkpt lat="43.38716" lon="5.93329">
        <ele>335</ele>
        <time>2000-11-05T11:54:21+01:00</time>
      </trkpt>
      <trkpt lat="43.38719" lon="5.93362">
        <ele>339</ele>
        <time>2000-11-05T11:55:04+01:00</time>
      </trkpt>
      <trkpt lat="43.38704" lon="5.93388">
        <ele>339</ele>
        <time>2000-11-05T11:55:24+01:00</time>
      </trkpt>
      <trkpt lat="43.38692" lon="5.93413">
        <ele>339</ele>
        <time>2000-11-05T11:55:52+01:00</time>
      </trkpt>
      <trkpt lat="43.3868" lon="5.93441">
        <ele>339</ele>
        <time>2000-11-05T11:56:31+01:00</time>
      </trkpt>
      <trkpt lat="43.38664" lon="5.93465">
        <ele>339</ele>
        <time>2000-11-05T11:56:53+01:00</time>
      </trkpt>
      <trkpt lat="43.38654" lon="5.93494">
        <ele>337</ele>
        <time>2000-11-05T11:57:23+01:00</time>
      </trkpt>
      <trkpt lat="43.38638" lon="5.93517">
        <ele>337</ele>
        <time>2000-11-05T11:57:41+01:00</time>
      </trkpt>
      <trkpt lat="43.38627" lon="5.93545">
        <ele>335</ele>
        <time>2000-11-05T11:58:06+01:00</time>
      </trkpt>
      <trkpt lat="43.38619" lon="5.93574">
        <ele>334</ele>
        <time>2000-11-05T11:58:31+01:00</time>
      </trkpt>
      <trkpt lat="43.38619" lon="5.93605">
        <ele>335</ele>
        <time>2000-11-05T11:59:55+01:00</time>
      </trkpt>
      <trkpt lat="43.38597" lon="5.93617">
        <ele>335</ele>
        <time>2000-11-05T12:00:57+01:00</time>
      </trkpt>
      <trkpt lat="43.38576" lon="5.93629">
        <ele>337</ele>
        <time>2000-11-05T12:01:20+01:00</time>
      </trkpt>
      <trkpt lat="43.3856" lon="5.93653">
        <ele>340</ele>
        <time>2000-11-05T12:01:38+01:00</time>
      </trkpt>
      <trkpt lat="43.38563" lon="5.93686">
        <ele>342</ele>
        <time>2000-11-05T12:02:53+01:00</time>
      </trkpt>
      <trkpt lat="43.38563" lon="5.93718">
        <ele>345</ele>
        <time>2000-11-05T12:03:07+01:00</time>
      </trkpt>
      <trkpt lat="43.38561" lon="5.93749">
        <ele>348</ele>
        <time>2000-11-05T12:03:23+01:00</time>
      </trkpt>
      <trkpt lat="43.38558" lon="5.9378">
        <ele>351</ele>
        <time>2000-11-05T12:03:45+01:00</time>
      </trkpt>
      <trkpt lat="43.38547" lon="5.93807">
        <ele>354</ele>
        <time>2000-11-05T12:04:12+01:00</time>
      </trkpt>
      <trkpt lat="43.38528" lon="5.93825">
        <ele>357</ele>
        <time>2000-11-05T12:04:29+01:00</time>
      </trkpt>
      <trkpt lat="43.38505" lon="5.93815">
        <ele>359</ele>
        <time>2000-11-05T12:05:52+01:00</time>
      </trkpt>
      <trkpt lat="43.38481" lon="5.93805">
        <ele>361</ele>
        <time>2000-11-05T12:06:18+01:00</time>
      </trkpt>
      <trkpt lat="43.38504" lon="5.93813">
        <ele>360</ele>
        <time>2000-11-05T12:06:28+01:00</time>
      </trkpt>
      <trkpt lat="43.38525" lon="5.93803">
        <ele>356</ele>
        <time>2000-11-05T12:06:43+01:00</time>
      </trkpt>
      <trkpt lat="43.38511" lon="5.93779">
        <ele>358</ele>
        <time>2000-11-05T12:07:16+01:00</time>
      </trkpt>
      <trkpt lat="43.38496" lon="5.93754">
        <ele>360</ele>
        <time>2000-11-05T12:07:31+01:00</time>
      </trkpt>
      <trkpt lat="43.38492" lon="5.93722">
        <ele>361</ele>
        <time>2000-11-05T12:08:00+01:00</time>
      </trkpt>
      <trkpt lat="43.38478" lon="5.93697">
        <ele>362</ele>
        <time>2000-11-05T12:08:14+01:00</time>
      </trkpt>
      <trkpt lat="43.38459" lon="5.93679">
        <ele>364</ele>
        <time>2000-11-05T12:08:35+01:00</time>
      </trkpt>
      <trkpt lat="43.3844" lon="5.93661">
        <ele>365</ele>
        <time>2000-11-05T12:08:59+01:00</time>
      </trkpt>
      <trkpt lat="43.38421" lon="5.93643">
        <ele>365</ele>
        <time>2000-11-05T12:09:16+01:00</time>
      </trkpt>
      <trkpt lat="43.384" lon="5.93629">
        <ele>365</ele>
        <time>2000-11-05T12:09:42+01:00</time>
      </trkpt>
      <trkpt lat="43.3838" lon="5.93611">
        <ele>365</ele>
        <time>2000-11-05T12:09:58+01:00</time>
      </trkpt>
      <trkpt lat="43.38366" lon="5.93584">
        <ele>366</ele>
        <time>2000-11-05T12:10:21+01:00</time>
      </trkpt>
      <trkpt lat="43.38342" lon="5.93577">
        <ele>367</ele>
        <time>2000-11-05T12:10:43+01:00</time>
      </trkpt>
      <trkpt lat="43.38338" lon="5.93546">
        <ele>369</ele>
        <time>2000-11-05T12:11:14+01:00</time>
      </trkpt>
      <trkpt lat="43.38334" lon="5.93514">
        <ele>370</ele>
        <time>2000-11-05T12:11:36+01:00</time>
      </trkpt>
      <trkpt lat="43.38324" lon="5.93485">
        <ele>370</ele>
        <time>2000-11-05T12:11:59+01:00</time>
      </trkpt>
      <trkpt lat="43.38321" lon="5.93454">
        <ele>371</ele>
        <time>2000-11-05T12:12:17+01:00</time>
      </trkpt>
      <trkpt lat="43.38324" lon="5.93423">
        <ele>372</ele>
        <time>2000-11-05T12:12:40+01:00</time>
      </trkpt>
      <trkpt lat="43.38323" lon="5.93392">
        <ele>373</ele>
        <time>2000-11-05T12:13:07+01:00</time>
      </trkpt>
      <trkpt lat="43.38324" lon="5.93361">
        <ele>374</ele>
        <time>2000-11-05T12:13:27+01:00</time>
      </trkpt>
      <trkpt lat="43.38321" lon="5.93329">
        <ele>374</ele>
        <time>2000-11-05T12:13:54+01:00</time>
      </trkpt>
      <trkpt lat="43.38331" lon="5.93298">
        <ele>376</ele>
        <time>2000-11-05T12:14:21+01:00</time>
      </trkpt>
      <trkpt lat="43.38331" lon="5.93247">
        <ele>377</ele>
        <time>2000-11-05T12:14:48+01:00</time>
      </trkpt>
      <trkpt lat="43.3835" lon="5.93227">
        <ele>377</ele>
        <time>2000-11-05T12:15:06+01:00</time>
      </trkpt>
      <trkpt lat="43.38327" lon="5.9321">
        <ele>376</ele>
        <time>2000-11-05T12:15:17+01:00</time>
      </trkpt>
      <trkpt lat="43.38338" lon="5.93182">
        <ele>376</ele>
        <time>2000-11-05T12:15:24+01:00</time>
      </trkpt>
      <trkpt lat="43.3834" lon="5.9315">
        <ele>375</ele>
        <time>2000-11-05T12:15:46+01:00</time>
      </trkpt>
      <trkpt lat="43.38343" lon="5.93119">
        <ele>374</ele>
        <time>2000-11-05T12:16:11+01:00</time>
      </trkpt>
      <trkpt lat="43.3834" lon="5.93088">
        <ele>373</ele>
        <time>2000-11-05T12:16:28+01:00</time>
      </trkpt>
      <trkpt lat="43.38328" lon="5.93059">
        <ele>372</ele>
        <time>2000-11-05T12:18:35+01:00</time>
      </trkpt>
      <trkpt lat="43.38306" lon="5.93049">
        <ele>372</ele>
        <time>2000-11-05T12:18:46+01:00</time>
      </trkpt>
      <trkpt lat="43.38284" lon="5.93056">
        <ele>370</ele>
        <time>2000-11-05T12:19:18+01:00</time>
      </trkpt>
      <trkpt lat="43.38261" lon="5.9305">
        <ele>369</ele>
        <time>2000-11-05T12:19:38+01:00</time>
      </trkpt>
      <trkpt lat="43.38255" lon="5.9302">
        <ele>369</ele>
        <time>2000-11-05T12:19:48+01:00</time>
      </trkpt>
      <trkpt lat="43.38231" lon="5.9302">
        <ele>368</ele>
        <time>2000-11-05T12:20:10+01:00</time>
      </trkpt>
      <trkpt lat="43.38208" lon="5.9302">
        <ele>367</ele>
        <time>2000-11-05T12:20:25+01:00</time>
      </trkpt>
      <trkpt lat="43.38191" lon="5.92998">
        <ele>365</ele>
        <time>2000-11-05T12:20:38+01:00</time>
      </trkpt>
      <trkpt lat="43.38169" lon="5.92988">
        <ele>365</ele>
        <time>2000-11-05T12:21:12+01:00</time>
      </trkpt>
      <trkpt lat="43.3815" lon="5.92967">
        <ele>365</ele>
        <time>2000-11-05T12:21:33+01:00</time>
      </trkpt>
      <trkpt lat="43.38142" lon="5.92937">
        <ele>365</ele>
        <time>2000-11-05T12:21:52+01:00</time>
      </trkpt>
      <trkpt lat="43.38135" lon="5.92908">
        <ele>365</ele>
        <time>2000-11-05T12:22:18+01:00</time>
      </trkpt>
      <trkpt lat="43.38112" lon="5.92905">
        <ele>365</ele>
        <time>2000-11-05T12:22:28+01:00</time>
      </trkpt>
      <trkpt lat="43.38096" lon="5.9288">
        <ele>365</ele>
        <time>2000-11-05T12:23:18+01:00</time>
      </trkpt>
      <trkpt lat="43.38082" lon="5.92855">
        <ele>365</ele>
        <time>2000-11-05T12:23:29+01:00</time>
      </trkpt>
      <trkpt lat="43.38068" lon="5.92829">
        <ele>365</ele>
        <time>2000-11-05T12:23:38+01:00</time>
      </trkpt>
      <trkpt lat="43.3806" lon="5.92799">
        <ele>365</ele>
        <time>2000-11-05T12:24:15+01:00</time>
      </trkpt>
      <trkpt lat="43.38044" lon="5.92775">
        <ele>365</ele>
        <time>2000-11-05T12:24:29+01:00</time>
      </trkpt>
      <trkpt lat="43.38038" lon="5.92743">
        <ele>365</ele>
        <time>2000-11-05T12:24:50+01:00</time>
      </trkpt>
      <trkpt lat="43.38018" lon="5.92722">
        <ele>366</ele>
        <time>2000-11-05T12:25:15+01:00</time>
      </trkpt>
      <trkpt lat="43.38008" lon="5.92694">
        <ele>368</ele>
        <time>2000-11-05T12:25:25+01:00</time>
      </trkpt>
      <trkpt lat="43.38034" lon="5.92708">
        <ele>365</ele>
        <time>2000-11-05T12:25:30+01:00</time>
      </trkpt>
      <trkpt lat="43.38034" lon="5.92677">
        <ele>366</ele>
        <time>2000-11-05T12:26:04+01:00</time>
      </trkpt>
      <trkpt lat="43.38027" lon="5.92645">
        <ele>367</ele>
        <time>2000-11-05T12:27:23+01:00</time>
      </trkpt>
      <trkpt lat="43.38017" lon="5.92617">
        <ele>369</ele>
        <time>2000-11-05T12:27:35+01:00</time>
      </trkpt>
      <trkpt lat="43.38007" lon="5.92588">
        <ele>371</ele>
        <time>2000-11-05T12:27:44+01:00</time>
      </trkpt>
      <trkpt lat="43.37987" lon="5.92572">
        <ele>374</ele>
        <time>2000-11-05T12:28:35+01:00</time>
      </trkpt>
      <trkpt lat="43.37967" lon="5.92555">
        <ele>377</ele>
        <time>2000-11-05T12:28:51+01:00</time>
      </trkpt>
      <trkpt lat="43.37958" lon="5.92523">
        <ele>379</ele>
        <time>2000-11-05T12:29:14+01:00</time>
      </trkpt>
      <trkpt lat="43.37946" lon="5.92497">
        <ele>382</ele>
        <time>2000-11-05T12:29:30+01:00</time>
      </trkpt>
      <trkpt lat="43.37926" lon="5.9248">
        <ele>387</ele>
        <time>2000-11-05T12:30:25+01:00</time>
      </trkpt>
      <trkpt lat="43.37902" lon="5.92464">
        <ele>393</ele>
        <time>2000-11-05T12:31:03+01:00</time>
      </trkpt>
      <trkpt lat="43.37907" lon="5.92433">
        <ele>393</ele>
        <time>2000-11-05T12:31:47+01:00</time>
      </trkpt>
      <trkpt lat="43.37896" lon="5.92403">
        <ele>397</ele>
        <time>2000-11-05T12:32:21+01:00</time>
      </trkpt>
      <trkpt lat="43.37889" lon="5.92373">
        <ele>399</ele>
        <time>2000-11-05T12:32:59+01:00</time>
      </trkpt>
      <trkpt lat="43.37884" lon="5.92342">
        <ele>401</ele>
        <time>2000-11-05T12:33:41+01:00</time>
      </trkpt>
      <trkpt lat="43.37861" lon="5.92334">
        <ele>405</ele>
        <time>2000-11-05T12:34:28+01:00</time>
      </trkpt>
      <trkpt lat="43.37841" lon="5.92318">
        <ele>407</ele>
        <time>2000-11-05T12:35:00+01:00</time>
      </trkpt>
      <trkpt lat="43.37819" lon="5.92308">
        <ele>409</ele>
        <time>2000-11-05T12:35:41+01:00</time>
      </trkpt>
      <trkpt lat="43.37798" lon="5.92296">
        <ele>412</ele>
        <time>2000-11-05T12:35:53+01:00</time>
      </trkpt>
      <trkpt lat="43.37778" lon="5.9228">
        <ele>414</ele>
        <time>2000-11-05T12:36:05+01:00</time>
      </trkpt>
      <trkpt lat="43.37755" lon="5.92281">
        <ele>418</ele>
        <time>2000-11-05T12:37:04+01:00</time>
      </trkpt>
      <trkpt lat="43.37731" lon="5.92282">
        <ele>422</ele>
        <time>2000-11-05T13:05:33+01:00</time>
      </trkpt>
      <trkpt lat="43.37709" lon="5.92274">
        <ele>424</ele>
        <time>2000-11-05T13:05:51+01:00</time>
      </trkpt>
      <trkpt lat="43.37686" lon="5.92277">
        <ele>426</ele>
        <time>2000-11-05T13:06:38+01:00</time>
      </trkpt>
      <trkpt lat="43.37662" lon="5.92283">
        <ele>425</ele>
        <time>2000-11-05T13:06:46+01:00</time>
      </trkpt>
      <trkpt lat="43.3764" lon="5.9229">
        <ele>423</ele>
        <time>2000-11-05T13:07:00+01:00</time>
      </trkpt>
      <trkpt lat="43.37617" lon="5.92296">
        <ele>422</ele>
        <time>2000-11-05T13:07:21+01:00</time>
      </trkpt>
      <trkpt lat="43.37604" lon="5.92322">
        <ele>422</ele>
        <time>2000-11-05T13:07:46+01:00</time>
      </trkpt>
      <trkpt lat="43.37591" lon="5.92349">
        <ele>422</ele>
        <time>2000-11-05T13:08:05+01:00</time>
      </trkpt>
      <trkpt lat="43.37579" lon="5.92375">
        <ele>422</ele>
        <time>2000-11-05T13:08:22+01:00</time>
      </trkpt>
      <trkpt lat="43.37567" lon="5.92402">
        <ele>422</ele>
        <time>2000-11-05T13:08:56+01:00</time>
      </trkpt>
      <trkpt lat="43.37549" lon="5.92424">
        <ele>421</ele>
        <time>2000-11-05T13:09:26+01:00</time>
      </trkpt>
      <trkpt lat="43.37535" lon="5.92449">
        <ele>421</ele>
        <time>2000-11-05T13:09:34+01:00</time>
      </trkpt>
      <trkpt lat="43.37521" lon="5.92475">
        <ele>420</ele>
        <time>2000-11-05T13:09:51+01:00</time>
      </trkpt>
      <trkpt lat="43.37518" lon="5.92506">
        <ele>421</ele>
        <time>2000-11-05T13:10:15+01:00</time>
      </trkpt>
      <trkpt lat="43.37506" lon="5.92534">
        <ele>421</ele>
        <time>2000-11-05T13:10:30+01:00</time>
      </trkpt>
      <trkpt lat="43.37491" lon="5.92559">
        <ele>420</ele>
        <time>2000-11-05T13:10:47+01:00</time>
      </trkpt>
      <trkpt lat="43.37476" lon="5.92584">
        <ele>419</ele>
        <time>2000-11-05T13:11:11+01:00</time>
      </trkpt>
      <trkpt lat="43.37468" lon="5.92613">
        <ele>419</ele>
        <time>2000-11-05T13:11:27+01:00</time>
      </trkpt>
      <trkpt lat="43.37452" lon="5.92636">
        <ele>418</ele>
        <time>2000-11-05T13:11:50+01:00</time>
      </trkpt>
      <trkpt lat="43.3743" lon="5.92645">
        <ele>417</ele>
        <time>2000-11-05T13:12:13+01:00</time>
      </trkpt>
      <trkpt lat="43.37418" lon="5.92671">
        <ele>417</ele>
        <time>2000-11-05T13:12:33+01:00</time>
      </trkpt>
      <trkpt lat="43.37399" lon="5.92689">
        <ele>418</ele>
        <time>2000-11-05T13:12:56+01:00</time>
      </trkpt>
      <trkpt lat="43.37379" lon="5.92673">
        <ele>418</ele>
        <time>2000-11-05T13:13:19+01:00</time>
      </trkpt>
      <trkpt lat="43.3736" lon="5.92656">
        <ele>418</ele>
        <time>2000-11-05T13:13:52+01:00</time>
      </trkpt>
      <trkpt lat="43.37337" lon="5.9265">
        <ele>417</ele>
        <time>2000-11-05T13:14:36+01:00</time>
      </trkpt>
      <trkpt lat="43.37322" lon="5.92674">
        <ele>416</ele>
        <time>2000-11-05T13:14:47+01:00</time>
      </trkpt>
      <trkpt lat="43.37311" lon="5.92702">
        <ele>416</ele>
        <time>2000-11-05T13:15:01+01:00</time>
      </trkpt>
      <trkpt lat="43.37305" lon="5.92733">
        <ele>416</ele>
        <time>2000-11-05T13:15:22+01:00</time>
      </trkpt>
      <trkpt lat="43.37297" lon="5.92764">
        <ele>414</ele>
        <time>2000-11-05T13:15:44+01:00</time>
      </trkpt>
      <trkpt lat="43.37289" lon="5.92794">
        <ele>413</ele>
        <time>2000-11-05T13:16:04+01:00</time>
      </trkpt>
      <trkpt lat="43.37285" lon="5.92825">
        <ele>413</ele>
        <time>2000-11-05T13:16:51+01:00</time>
      </trkpt>
      <trkpt lat="43.37263" lon="5.92834">
        <ele>411</ele>
        <time>2000-11-05T13:17:00+01:00</time>
      </trkpt>
      <trkpt lat="43.37254" lon="5.92863">
        <ele>412</ele>
        <time>2000-11-05T13:17:12+01:00</time>
      </trkpt>
      <trkpt lat="43.37242" lon="5.9289">
        <ele>411</ele>
        <time>2000-11-05T13:17:32+01:00</time>
      </trkpt>
      <trkpt lat="43.37219" lon="5.92894">
        <ele>410</ele>
        <time>2000-11-05T13:17:53+01:00</time>
      </trkpt>
      <trkpt lat="43.37196" lon="5.92886">
        <ele>410</ele>
        <time>2000-11-05T13:18:20+01:00</time>
      </trkpt>
      <trkpt lat="43.37174" lon="5.92891">
        <ele>407</ele>
        <time>2000-11-05T13:19:10+01:00</time>
      </trkpt>
      <trkpt lat="43.37151" lon="5.92896">
        <ele>404</ele>
        <time>2000-11-05T13:20:01+01:00</time>
      </trkpt>
      <trkpt lat="43.37127" lon="5.92904">
        <ele>401</ele>
        <time>2000-11-05T13:20:09+01:00</time>
      </trkpt>
      <trkpt lat="43.37104" lon="5.92907">
        <ele>400</ele>
        <time>2000-11-05T13:20:20+01:00</time>
      </trkpt>
      <trkpt lat="43.37081" lon="5.92909">
        <ele>399</ele>
        <time>2000-11-05T13:20:38+01:00</time>
      </trkpt>
      <trkpt lat="43.37065" lon="5.92884">
        <ele>396</ele>
        <time>2000-11-05T13:21:17+01:00</time>
      </trkpt>
      <trkpt lat="43.37049" lon="5.92862">
        <ele>395</ele>
        <time>2000-11-05T13:21:56+01:00</time>
      </trkpt>
      <trkpt lat="43.37036" lon="5.92834">
        <ele>393</ele>
        <time>2000-11-05T13:22:20+01:00</time>
      </trkpt>
      <trkpt lat="43.37017" lon="5.92818">
        <ele>392</ele>
        <time>2000-11-05T13:22:48+01:00</time>
      </trkpt>
      <trkpt lat="43.3701" lon="5.92789">
        <ele>391</ele>
        <time>2000-11-05T13:23:45+01:00</time>
      </trkpt>
      <trkpt lat="43.36992" lon="5.92769">
        <ele>390</ele>
        <time>2000-11-05T13:24:29+01:00</time>
      </trkpt>
      <trkpt lat="43.36991" lon="5.92738">
        <ele>391</ele>
        <time>2000-11-05T13:24:54+01:00</time>
      </trkpt>
      <trkpt lat="43.36992" lon="5.92707">
        <ele>390</ele>
        <time>2000-11-05T13:25:14+01:00</time>
      </trkpt>
      <trkpt lat="43.36976" lon="5.92683">
        <ele>390</ele>
        <time>2000-11-05T13:25:27+01:00</time>
      </trkpt>
      <trkpt lat="43.36968" lon="5.92654">
        <ele>389</ele>
        <time>2000-11-05T13:26:42+01:00</time>
      </trkpt>
      <trkpt lat="43.36972" lon="5.92622">
        <ele>390</ele>
        <time>2000-11-05T13:27:04+01:00</time>
      </trkpt>
      <trkpt lat="43.36974" lon="5.9259">
        <ele>389</ele>
        <time>2000-11-05T13:27:23+01:00</time>
      </trkpt>
      <trkpt lat="43.36973" lon="5.92559">
        <ele>387</ele>
        <time>2000-11-05T13:27:44+01:00</time>
      </trkpt>
      <trkpt lat="43.36988" lon="5.92534">
        <ele>388</ele>
        <time>2000-11-05T13:28:00+01:00</time>
      </trkpt>
      <trkpt lat="43.36977" lon="5.92507">
        <ele>387</ele>
        <time>2000-11-05T13:28:29+01:00</time>
      </trkpt>
      <trkpt lat="43.36954" lon="5.92494">
        <ele>384</ele>
        <time>2000-11-05T13:28:47+01:00</time>
      </trkpt>
      <trkpt lat="43.36932" lon="5.92489">
        <ele>381</ele>
        <time>2000-11-05T13:29:12+01:00</time>
      </trkpt>
      <trkpt lat="43.36914" lon="5.92469">
        <ele>378</ele>
        <time>2000-11-05T13:29:31+01:00</time>
      </trkpt>
      <trkpt lat="43.36901" lon="5.92442">
        <ele>375</ele>
        <time>2000-11-05T13:30:30+01:00</time>
      </trkpt>
      <trkpt lat="43.36879" lon="5.92429">
        <ele>374</ele>
        <time>2000-11-05T13:30:54+01:00</time>
      </trkpt>
      <trkpt lat="43.36899" lon="5.92448">
        <ele>375</ele>
        <time>2000-11-05T13:32:39+01:00</time>
      </trkpt>
      <trkpt lat="43.36906" lon="5.92477">
        <ele>377</ele>
        <time>2000-11-05T13:32:57+01:00</time>
      </trkpt>
      <trkpt lat="43.36897" lon="5.92507">
        <ele>378</ele>
        <time>2000-11-05T13:35:43+01:00</time>
      </trkpt>
      <trkpt lat="43.36874" lon="5.92497">
        <ele>380</ele>
        <time>2000-11-05T13:35:53+01:00</time>
      </trkpt>
      <trkpt lat="43.36857" lon="5.92477">
        <ele>382</ele>
        <time>2000-11-05T13:36:19+01:00</time>
      </trkpt>
      <trkpt lat="43.36836" lon="5.92467">
        <ele>380</ele>
        <time>2000-11-05T13:39:27+01:00</time>
      </trkpt>
      <trkpt lat="43.36813" lon="5.92473">
        <ele>380</ele>
        <time>2000-11-05T13:40:18+01:00</time>
      </trkpt>
      <trkpt lat="43.36791" lon="5.92463">
        <ele>378</ele>
        <time>2000-11-05T13:40:34+01:00</time>
      </trkpt>
      <trkpt lat="43.36797" lon="5.92494">
        <ele>382</ele>
        <time>2000-11-05T13:41:40+01:00</time>
      </trkpt>
      <trkpt lat="43.36797" lon="5.92526">
        <ele>384</ele>
        <time>2000-11-05T13:42:00+01:00</time>
      </trkpt>
      <trkpt lat="43.36807" lon="5.92555">
        <ele>385</ele>
        <time>2000-11-05T13:42:23+01:00</time>
      </trkpt>
      <trkpt lat="43.36805" lon="5.92587">
        <ele>386</ele>
        <time>2000-11-05T13:43:08+01:00</time>
      </trkpt>
      <trkpt lat="43.36799" lon="5.92617">
        <ele>388</ele>
        <time>2000-11-05T13:43:21+01:00</time>
      </trkpt>
      <trkpt lat="43.36802" lon="5.92649">
        <ele>389</ele>
        <time>2000-11-05T13:43:57+01:00</time>
      </trkpt>
      <trkpt lat="43.36785" lon="5.9267">
        <ele>389</ele>
        <time>2000-11-05T13:44:27+01:00</time>
      </trkpt>
      <trkpt lat="43.36763" lon="5.92682">
        <ele>388</ele>
        <time>2000-11-05T13:45:11+01:00</time>
      </trkpt>
      <trkpt lat="43.36743" lon="5.92697">
        <ele>387</ele>
        <time>2000-11-05T13:45:32+01:00</time>
      </trkpt>
      <trkpt lat="43.3672" lon="5.92711">
        <ele>386</ele>
        <time>2000-11-05T13:46:18+01:00</time>
      </trkpt>
      <trkpt lat="43.36705" lon="5.92687">
        <ele>385</ele>
        <time>2000-11-05T13:47:05+01:00</time>
      </trkpt>
      <trkpt lat="43.36683" lon="5.92687">
        <ele>383</ele>
        <time>2000-11-05T13:48:08+01:00</time>
      </trkpt>
      <trkpt lat="43.36674" lon="5.92658">
        <ele>382</ele>
        <time>2000-11-05T13:48:39+01:00</time>
      </trkpt>
      <trkpt lat="43.36678" lon="5.92627">
        <ele>382</ele>
        <time>2000-11-05T13:49:15+01:00</time>
      </trkpt>
      <trkpt lat="43.36675" lon="5.92596">
        <ele>381</ele>
        <time>2000-11-05T13:51:34+01:00</time>
      </trkpt>
      <trkpt lat="43.36655" lon="5.9258">
        <ele>380</ele>
        <time>2000-11-05T13:52:34+01:00</time>
      </trkpt>
      <trkpt lat="43.36631" lon="5.92582">
        <ele>379</ele>
        <time>2000-11-05T13:53:30+01:00</time>
      </trkpt>
      <trkpt lat="43.36608" lon="5.92587">
        <ele>378</ele>
        <time>2000-11-05T13:53:55+01:00</time>
      </trkpt>
      <trkpt lat="43.36587" lon="5.92602">
        <ele>377</ele>
        <time>2000-11-05T13:54:16+01:00</time>
      </trkpt>
      <trkpt lat="43.36568" lon="5.92618">
        <ele>376</ele>
        <time>2000-11-05T13:54:44+01:00</time>
      </trkpt>
      <trkpt lat="43.36559" lon="5.92647">
        <ele>376</ele>
        <time>2000-11-05T13:55:03+01:00</time>
      </trkpt>
      <trkpt lat="43.36538" lon="5.92631">
        <ele>375</ele>
        <time>2000-11-05T13:56:16+01:00</time>
      </trkpt>
      <trkpt lat="43.3652" lon="5.92612">
        <ele>373</ele>
        <time>2000-11-05T13:56:30+01:00</time>
      </trkpt>
      <trkpt lat="43.36509" lon="5.92583">
        <ele>373</ele>
        <time>2000-11-05T13:56:49+01:00</time>
      </trkpt>
      <trkpt lat="43.365" lon="5.92553">
        <ele>372</ele>
        <time>2000-11-05T13:57:08+01:00</time>
      </trkpt>
      <trkpt lat="43.36497" lon="5.92521">
        <ele>372</ele>
        <time>2000-11-05T13:57:28+01:00</time>
      </trkpt>
      <trkpt lat="43.36497" lon="5.9249">
        <ele>371</ele>
        <time>2000-11-05T13:58:12+01:00</time>
      </trkpt>
      <trkpt lat="43.36489" lon="5.92459">
        <ele>371</ele>
        <time>2000-11-05T13:58:35+01:00</time>
      </trkpt>
      <trkpt lat="43.36483" lon="5.92429">
        <ele>370</ele>
        <time>2000-11-05T14:00:00+01:00</time>
      </trkpt>
      <trkpt lat="43.36485" lon="5.92394">
        <ele>370</ele>
        <time>2000-11-05T14:00:22+01:00</time>
      </trkpt>
      <trkpt lat="43.36492" lon="5.92364">
        <ele>370</ele>
        <time>2000-11-05T14:00:37+01:00</time>
      </trkpt>
      <trkpt lat="43.36481" lon="5.92336">
        <ele>369</ele>
        <time>2000-11-05T14:00:55+01:00</time>
      </trkpt>
      <trkpt lat="43.36477" lon="5.92306">
        <ele>368</ele>
        <time>2000-11-05T14:01:17+01:00</time>
      </trkpt>
      <trkpt lat="43.36472" lon="5.92274">
        <ele>368</ele>
        <time>2000-11-05T14:01:37+01:00</time>
      </trkpt>
      <trkpt lat="43.36464" lon="5.92246">
        <ele>366</ele>
        <time>2000-11-05T14:01:58+01:00</time>
      </trkpt>
      <trkpt lat="43.3646" lon="5.92214">
        <ele>365</ele>
        <time>2000-11-05T14:02:18+01:00</time>
      </trkpt>
      <trkpt lat="43.3647" lon="5.92186">
        <ele>363</ele>
        <time>2000-11-05T14:02:38+01:00</time>
      </trkpt>
      <trkpt lat="43.36476" lon="5.92155">
        <ele>361</ele>
        <time>2000-11-05T14:02:56+01:00</time>
      </trkpt>
      <trkpt lat="43.3648" lon="5.92123">
        <ele>361</ele>
        <time>2000-11-05T14:03:22+01:00</time>
      </trkpt>
      <trkpt lat="43.36479" lon="5.92093">
        <ele>360</ele>
        <time>2000-11-05T14:04:03+01:00</time>
      </trkpt>
      <trkpt lat="43.36471" lon="5.92063">
        <ele>360</ele>
        <time>2000-11-05T14:04:21+01:00</time>
      </trkpt>
      <trkpt lat="43.36456" lon="5.92039">
        <ele>360</ele>
        <time>2000-11-05T14:04:56+01:00</time>
      </trkpt>
      <trkpt lat="43.36445" lon="5.92012">
        <ele>360</ele>
        <time>2000-11-05T14:05:29+01:00</time>
      </trkpt>
      <trkpt lat="43.36431" lon="5.91987">
        <ele>360</ele>
        <time>2000-11-05T14:05:57+01:00</time>
      </trkpt>
      <trkpt lat="43.36407" lon="5.91987">
        <ele>360</ele>
        <time>2000-11-05T14:07:12+01:00</time>
      </trkpt>
      <trkpt lat="43.364" lon="5.91958">
        <ele>360</ele>
        <time>2000-11-05T14:08:00+01:00</time>
      </trkpt>
      <trkpt lat="43.36396" lon="5.91927">
        <ele>360</ele>
        <time>2000-11-05T14:08:17+01:00</time>
      </trkpt>
      <trkpt lat="43.36398" lon="5.91896">
        <ele>360</ele>
        <time>2000-11-05T14:08:35+01:00</time>
      </trkpt>
      <trkpt lat="43.36389" lon="5.91866">
        <ele>360</ele>
        <time>2000-11-05T14:09:42+01:00</time>
      </trkpt>
      <trkpt lat="43.36402" lon="5.91841">
        <ele>360</ele>
        <time>2000-11-05T14:10:27+01:00</time>
      </trkpt>
      <trkpt lat="43.3642" lon="5.91822">
        <ele>361</ele>
        <time>2000-11-05T14:10:44+01:00</time>
      </trkpt>
      <trkpt lat="43.36424" lon="5.91791">
        <ele>361</ele>
        <time>2000-11-05T14:11:23+01:00</time>
      </trkpt>
      <trkpt lat="43.36426" lon="5.91759">
        <ele>361</ele>
        <time>2000-11-05T14:11:40+01:00</time>
      </trkpt>
      <trkpt lat="43.36427" lon="5.91728">
        <ele>361</ele>
        <time>2000-11-05T14:12:03+01:00</time>
      </trkpt>
      <trkpt lat="43.36438" lon="5.917">
        <ele>362</ele>
        <time>2000-11-05T14:12:23+01:00</time>
      </trkpt>
      <trkpt lat="43.36443" lon="5.9167">
        <ele>361</ele>
        <time>2000-11-05T14:12:40+01:00</time>
      </trkpt>
      <trkpt lat="43.36447" lon="5.91639">
        <ele>361</ele>
        <time>2000-11-05T14:13:01+01:00</time>
      </trkpt>
      <trkpt lat="43.36456" lon="5.91609">
        <ele>361</ele>
        <time>2000-11-05T14:13:21+01:00</time>
      </trkpt>
      <trkpt lat="43.36461" lon="5.91579">
        <ele>361</ele>
        <time>2000-11-05T14:13:42+01:00</time>
      </trkpt>
      <trkpt lat="43.36467" lon="5.91548">
        <ele>362</ele>
        <time>2000-11-05T14:14:02+01:00</time>
      </trkpt>
      <trkpt lat="43.36468" lon="5.91517">
        <ele>362</ele>
        <time>2000-11-05T14:14:23+01:00</time>
      </trkpt>
      <trkpt lat="43.36474" lon="5.91486">
        <ele>362</ele>
        <time>2000-11-05T14:14:46+01:00</time>
      </trkpt>
      <trkpt lat="43.36468" lon="5.91456">
        <ele>362</ele>
        <time>2000-11-05T14:15:07+01:00</time>
      </trkpt>
      <trkpt lat="43.36474" lon="5.91425">
        <ele>363</ele>
        <time>2000-11-05T14:15:27+01:00</time>
      </trkpt>
      <trkpt lat="43.3648" lon="5.91395">
        <ele>364</ele>
        <time>2000-11-05T14:15:49+01:00</time>
      </trkpt>
      <trkpt lat="43.36482" lon="5.91364">
        <ele>365</ele>
        <time>2000-11-05T14:16:09+01:00</time>
      </trkpt>
    </trkseg>
  </trk>
</gpx>